Atkins, VA

7:49 PM EDT on September 30, 2016 (GMT -0400)
Mountain Empire

Weather History for KMKJ - November, 2012

Change the Weather History Date:

Friday, November 2, 2012

  Actual Average (KGEV) Record (KGEV)
Temperature  
Mean Temperature 46 °F -  
Max Temperature 52 °F 62 °F 77 °F (1971)
Min Temperature 40 °F 37 °F 17 °F (1993)
Degree Days  
Heating Degree Days 19    
Moisture  
Dew Point 26 °F    
Average Humidity 47    
Maximum Humidity 56    
Minimum Humidity 34    
Precipitation  
Precipitation 0.00 in - - ()
Sea Level Pressure  
Sea Level Pressure 29.90 in    
Wind  
Wind Speed 15 mph (West)    
Max Wind Speed 25 mph    
Max Gust Speed 39 mph    
Visibility 10 miles    
Events      
Averages and records for this station are not official NWS values.
T = Trace of Precipitation, MM = Missing Value Source: NWS Daily Summary

Daily Weather History Graph

Daily Weather History Graph

Search for Another Location

Airport or City:

Trip Planner

Search our weather history database for the weather conditions in past years. The results will help you decide how hot, cold, wet, or windy it might be!

Date:

Astronomy

Nov. 02, 2012 Rise Set
Actual Time 7:50 AM EDT 6:26 PM EDT
Civil Twilight 7:23 AM EDT 6:53 PM EDT
Nautical Twilight 6:53 AM EDT 7:24 PM EDT
Astronomical Twilight 6:22 AM EDT 7:54 PM EDT
Moon 9:15 PM EDT (11/2) 11:07 AM EDT (11/2)
Length of Visible Light 11h 29m
Length of Day
10h 35m
Waning Gibbous, 87% of the Moon is Illuminated
Nov 2
Waning Gibbous
Nov 6
Last Quarter
Nov 13
New
Nov 20
First Quarter
Nov 28
Full

Hourly Weather History & Observations

Time (EDT) Temp. Windchill Dew Point Humidity Pressure Visibility Wind Dir Wind Speed Gust Speed Precip Events Conditions
12:15 AM 41.5 °F 34.2 °F 22.6 °F 47% 29.88 in 10.0 mi West 13.8 mph - N/A   Clear
12:35 AM 41.0 °F 34.3 °F 22.5 °F 48% 29.87 in 10.0 mi West 11.5 mph - N/A   Clear
12:55 AM 40.5 °F 33.6 °F 22.6 °F 49% 29.87 in 10.0 mi West 11.5 mph - N/A   Scattered Clouds
1:15 AM 41.0 °F 34.3 °F 22.1 °F 47% 29.87 in 10.0 mi West 11.5 mph - N/A   Scattered Clouds
1:35 AM 41.0 °F 33.1 °F 22.1 °F 47% 29.86 in 10.0 mi West 15.0 mph - N/A   Clear
1:55 AM 41.0 °F 33.5 °F 21.7 °F 46% 29.86 in 10.0 mi WSW 13.8 mph - N/A   Clear
2:15 AM 40.1 °F 32.4 °F 22.6 °F 50% 29.86 in 10.0 mi WSW 13.8 mph - N/A   Clear
2:35 AM 40.1 °F 31.6 °F 23.0 °F 51% 29.85 in 10.0 mi WSW 16.1 mph - N/A   Scattered Clouds
2:55 AM 40.6 °F 32.7 °F 23.4 °F 50% 29.85 in 10.0 mi WSW 15.0 mph - N/A   Overcast
3:15 AM 40.5 °F 31.8 °F 23.2 °F 50% 29.85 in 10.0 mi WSW 17.3 mph - N/A   Mostly Cloudy
3:35 AM 41.2 °F 32.7 °F 23.4 °F 49% 29.86 in 10.0 mi WSW 17.3 mph - N/A   Overcast
3:55 AM 41.9 °F 34.3 °F 23.5 °F 48% 29.84 in 10.0 mi West 15.0 mph - N/A   Overcast
4:15 AM 42.8 °F 34.5 °F 23.7 °F 47% 29.84 in 10.0 mi WSW 18.4 mph 21.9 mph N/A   Overcast
4:35 AM 42.8 °F 35.4 °F 23.9 °F 47% 29.84 in 10.0 mi WSW 15.0 mph 21.9 mph N/A   Overcast
4:55 AM 43.2 °F 35.9 °F 24.3 °F 47% 29.84 in 10.0 mi WSW 15.0 mph 21.9 mph N/A   Overcast
5:15 AM 43.0 °F 35.4 °F 24.4 °F 48% 29.84 in 10.0 mi WSW 16.1 mph 21.9 mph N/A   Overcast
5:35 AM 43.0 °F 35.7 °F 25.0 °F 49% 29.84 in 10.0 mi WSW 15.0 mph - N/A   Overcast
5:55 AM 42.6 °F 35.6 °F 25.5 °F 51% 29.84 in 10.0 mi WSW 13.8 mph - N/A   Overcast
6:15 AM 42.8 °F 35.4 °F 25.7 °F 51% 29.84 in 10.0 mi WSW 15.0 mph - N/A   Overcast
6:35 AM 42.8 °F 35.1 °F 25.3 °F 50% 29.84 in 10.0 mi WSW 16.1 mph 24.2 mph N/A   Overcast
6:55 AM 42.4 °F 35.0 °F 25.7 °F 52% 29.84 in 10.0 mi WSW 15.0 mph 20.7 mph N/A   Overcast
7:15 AM 42.1 °F 34.9 °F 26.1 °F 53% 29.83 in 10.0 mi WSW 13.8 mph 23.0 mph N/A   Mostly Cloudy
7:35 AM 42.4 °F 35.3 °F 26.6 °F 54% 29.84 in 10.0 mi WSW 13.8 mph 20.7 mph N/A   Overcast
7:55 AM 42.6 °F 34.0 °F 26.4 °F 53% 29.84 in 10.0 mi WSW 19.6 mph 23.0 mph N/A   Overcast
8:15 AM 43.0 °F 35.1 °F 27.1 °F 54% 29.84 in 10.0 mi West 17.3 mph 23.0 mph N/A   Overcast
8:35 AM 43.3 °F 35.0 °F 27.1 °F 53% 29.83 in 10.0 mi West 19.6 mph 26.5 mph N/A   Overcast
8:55 AM 43.7 °F 36.0 °F 27.3 °F 53% 29.84 in 10.0 mi West 17.3 mph 24.2 mph N/A   Overcast
9:15 AM 44.6 °F 35.7 °F 27.0 °F 50% 29.84 in 10.0 mi West 24.2 mph 32.2 mph N/A   Overcast
9:35 AM 45.0 °F 36.4 °F 27.3 °F 50% 29.84 in 10.0 mi West 23.0 mph 32.2 mph N/A   Overcast
9:55 AM 45.5 °F 37.8 °F 28.6 °F 52% 29.85 in 10.0 mi West 19.6 mph 27.6 mph N/A   Overcast
10:15 AM 46.2 °F 39.5 °F 29.8 °F 53% 29.86 in 10.0 mi West 16.1 mph - N/A   Overcast
10:35 AM 47.5 °F - 31.6 °F 54% 29.85 in 10.0 mi West 17.3 mph 27.6 mph N/A   Mostly Cloudy
10:55 AM 49.1 °F - 32.7 °F 53% 29.85 in 10.0 mi WNW 24.2 mph 31.1 mph N/A   Overcast
11:15 AM 49.1 °F - 32.5 °F 53% 29.86 in 10.0 mi WNW 25.3 mph 33.4 mph N/A   Mostly Cloudy
11:35 AM 48.7 °F - 32.4 °F 53% 29.87 in 10.0 mi WNW 23.0 mph 39.1 mph N/A   Mostly Cloudy
11:55 AM 48.6 °F - 32.9 °F 55% 29.88 in 10.0 mi WNW 24.2 mph 36.8 mph N/A   Mostly Cloudy
12:15 PM 48.4 °F - 33.1 °F 56% 29.89 in 10.0 mi WNW 21.9 mph 32.2 mph N/A   Scattered Clouds
12:35 PM 48.0 °F - 32.7 °F 55% 29.89 in 10.0 mi West 16.1 mph 34.5 mph N/A   Scattered Clouds
12:55 PM 49.3 °F - 32.7 °F 53% 29.89 in 10.0 mi West 19.6 mph 29.9 mph N/A   Mostly Cloudy
1:15 PM 50.5 °F - 32.0 °F 49% 29.89 in 10.0 mi West 15.0 mph 29.9 mph N/A   Scattered Clouds
1:35 PM 50.9 °F - 31.1 °F 47% 29.89 in 10.0 mi West 13.8 mph 23.0 mph N/A   Mostly Cloudy
1:55 PM 50.5 °F - 28.9 °F 43% 29.88 in 10.0 mi West 24.2 mph 32.2 mph N/A   Mostly Cloudy
2:15 PM 51.3 °F - 27.7 °F 40% 29.89 in 10.0 mi West 21.9 mph 26.5 mph N/A   Scattered Clouds
2:35 PM 50.9 °F - 26.6 °F 39% 29.90 in 10.0 mi WNW 11.5 mph 31.1 mph N/A   Clear
2:55 PM 51.8 °F - 25.5 °F 36% 29.89 in 10.0 mi WNW 16.1 mph 23.0 mph N/A   Clear
3:15 PM 52.3 °F - 27.0 °F 37% 29.90 in 10.0 mi West 12.7 mph 26.5 mph N/A   Clear
3:35 PM 52.0 °F - 24.1 °F 34% 29.90 in 10.0 mi WNW 10.4 mph 26.5 mph N/A   Clear
3:55 PM 52.3 °F - 26.1 °F 36% 29.90 in 10.0 mi West 20.7 mph 26.5 mph N/A   Clear
4:15 PM 52.2 °F - 26.1 °F 36% 29.91 in 10.0 mi West 19.6 mph 26.5 mph N/A   Clear
4:35 PM 51.8 °F - 25.9 °F 37% 29.91 in 10.0 mi WNW 17.3 mph 26.5 mph N/A   Clear
4:55 PM 51.8 °F - 25.3 °F 36% 29.91 in 10.0 mi WNW 18.4 mph 24.2 mph N/A   Clear
5:15 PM 51.8 °F - 24.8 °F 35% 29.92 in 10.0 mi West 18.4 mph 26.5 mph N/A   Clear
5:35 PM 51.1 °F - 25.0 °F 36% 29.93 in 10.0 mi West 15.0 mph 23.0 mph N/A   Clear
5:55 PM 50.2 °F - 25.7 °F 39% 29.93 in 10.0 mi West 17.3 mph 23.0 mph N/A   Clear
6:15 PM 49.5 °F - 23.0 °F 35% 29.94 in 10.0 mi West 16.1 mph 26.5 mph N/A   Clear
6:35 PM 49.1 °F - 23.2 °F 36% 29.95 in 10.0 mi West 15.0 mph 24.2 mph N/A   Clear
6:55 PM 48.2 °F - 24.8 °F 40% 29.96 in 10.0 mi West 10.4 mph 19.6 mph N/A   Clear
7:15 PM 47.5 °F - 25.9 °F 43% 29.96 in 10.0 mi West 10.4 mph 17.3 mph N/A   Clear
7:35 PM 47.3 °F - 26.4 °F 44% 29.97 in 10.0 mi West 13.8 mph 18.4 mph N/A   Clear
7:55 PM 47.3 °F - 26.6 °F 45% 29.97 in 10.0 mi West 10.4 mph 21.9 mph N/A   Clear
8:15 PM 46.6 °F - 26.8 °F 46% 29.98 in 10.0 mi West 13.8 mph 19.6 mph N/A   Clear
8:35 PM 47.5 °F - 26.6 °F 44% 29.98 in 10.0 mi West 10.4 mph 24.2 mph N/A   Clear
8:55 PM 46.4 °F 40.4 °F 26.8 °F 46% 29.98 in 10.0 mi West 13.8 mph - N/A   Clear
9:15 PM 46.8 °F - 25.7 °F 44% 29.98 in 10.0 mi West 16.1 mph 23.0 mph N/A   Clear
9:35 PM 46.0 °F 40.2 °F 25.9 °F 45% 29.99 in 10.0 mi West 12.7 mph 19.6 mph N/A   Clear
9:55 PM 45.7 °F 40.2 °F 26.1 °F 46% 30.00 in 10.0 mi West 11.5 mph 18.4 mph N/A   Clear
10:15 PM 45.1 °F 40.3 °F 26.2 °F 48% 30.00 in 10.0 mi West 9.2 mph - N/A   Clear
10:35 PM 45.3 °F 39.0 °F 26.1 °F 47% 30.00 in 10.0 mi West 13.8 mph 18.4 mph N/A   Clear
10:55 PM 44.8 °F 39.0 °F 26.2 °F 48% 30.01 in 10.0 mi West 11.5 mph - N/A   Clear
11:15 PM 43.9 °F 38.3 °F 26.6 °F 51% 30.01 in 10.0 mi West 10.4 mph - N/A   Clear
11:35 PM 43.3 °F 36.8 °F 26.8 °F 52% 30.02 in 10.0 mi West 12.7 mph - N/A   Clear
11:55 PM 43.2 °F 37.9 °F 27.1 °F 53% 30.01 in 10.0 mi West 9.2 mph - N/A   Clear